Terminal Aerodrome Forecast
Issued by NWS Nashville, TN

Home | Current Version | Previous Version | Text Only | Print | Product List | Glossary On
Versions: 1 2 3 4 5 6 7 8 9 10 11 12 13 14 15 16 17 18 19 20 21 22 23
000
FTUS44 KOHX 211100
TAFCSV
TAF
KCSV 211128Z 2112/2212 03003KT P6SM SKC
     FM211500 07005KT P6SM SCT250
     FM212200 12005KT P6SM SCT250
     FM220200 15004KT P6SM OVC035=

USA.gov is the U.S. government's official web portal to all federal, state and local government web resources and services.